デンバー の空港の天気 - METARとTAF

デンバー国際空港 ( KDEN / DEN ) - アメリカ コロラド州デンバー
飛行場実況気象(Metar)
観測時間08/11 00:53 MDT (08/11 06:53 UTC)
風向・風速南南西 5m/s
視程10km以上
天気現象
全天の4割程度の雲 雲底高度 4570m
全天の8割程度の雲 雲底高度 5490m
気温21.7℃
湿度35%
気圧1010.6hPa
METARKDEN 110653Z 20009KT 10SM SCT150 BKN180 22/06 A3010 RMK AO2 SLP106 T02170056 403110156
過去の天気等 Google飛行場航空写真 Wunderground天気予報

過去48時間のMETAR

飛行場予報(TAF)
発表時間: 8/11 00:07 MDT (8/11 06:07 UTC)
予報対象時間: 11日0時 MDT ~ 12日6時 MDT
風向・風速南南西 5m/s
視程10km以上
少しの雲 雲底高度 6710m
11日11時 MDT から
風向・風速北北西 4m/s
視程10km以上
少しの雲 雲底高度 6100m
11日16時 MDT から
風向・風速西北西 5m/s
視程10km以上
全天の4割程度の雲 雲底高度 3350m
全天の4割程度の雲 雲底高度 4570m
全天の8割程度の雲 雲底高度 6100m
11日21時 MDT から
風向・風速南 4m/s
視程10km以上
全天の4割程度の雲 雲底高度 3350m
全天の4割程度の雲 雲底高度 6710m
12日3時 MDT から
風向・風速南南西 5m/s
視程10km以上
少しの雲 雲底高度 6710m
KDEN 110607Z 1106/1212 21010KT P6SM FEW220
FM111700 34007KT P6SM FEW200
FM112200 29010KT P6SM SCT110 SCT150 BKN200
FM120300 18008KT P6SM SCT110 SCT220
FM120900 21010KT P6SM FEW220